Time;durP1;ratioP1;P1;durP2;ratioP2;P2;SDS_P1;SDS_P2;PMS_P1;PMS_P2;Temp;Humidity;BMP_temperature;BMP_pressure;BME280_temperature;BME280_humidity;BME280_pressure;Samples;Min_cycle;Max_cycle;Signal;HPM_P1;HPM_P2
2023/09/14 00:39:52;;;;;;;10.45;2.53;;;13.00;99.90;;;;;;4988399;23;20130;-61
2023/09/14 00:42:18;;;;;;;6.53;3.45;;;12.90;99.90;;;;;;4985122;28;20121;-61
2023/09/14 00:44:43;;;;;;;6.93;3.70;;;12.90;99.90;;;;;;4984934;28;20525;-62
2023/09/14 00:47:09;;;;;;;7.50;3.70;;;12.90;99.90;;;;;;4982758;28;20032;-62
2023/09/14 00:49:35;;;;;;;6.53;3.50;;;12.80;99.90;;;;;;4981751;28;20399;-62
2023/09/14 00:52:01;;;;;;;5.95;3.40;;;12.80;99.90;;;;;;4983011;28;20386;-61
2023/09/14 00:54:28;;;;;;;6.35;3.10;;;12.80;99.90;;;;;;4983829;28;20093;-63
2023/09/14 00:56:53;;;;;;;7.43;3.08;;;12.80;99.90;;;;;;4984645;28;20360;-62
2023/09/14 00:59:19;;;;;;;6.25;3.45;;;12.80;99.90;;;;;;4983795;28;20050;-62
2023/09/14 01:01:45;;;;;;;6.75;3.17;;;12.70;99.90;;;;;;4983822;28;20034;-63
2023/09/14 01:04:11;;;;;;;8.93;3.45;;;12.70;99.90;;;;;;4991358;28;20141;-62
2023/09/14 01:06:36;;;;;;;6.07;3.38;;;12.70;99.90;;;;;;4983035;28;20129;-62
2023/09/14 01:09:04;;;;;;;7.57;1.88;;;12.70;99.90;;;;;;4983154;28;20467;-62
2023/09/14 01:11:30;;;;;;;5.90;3.40;;;12.60;99.90;;;;;;4984015;28;20086;-62
2023/09/14 01:14:25;;;;;;;6.53;3.65;;;12.60;99.90;;;;;;4982550;28;20030;-63
2023/09/14 01:17:00;;;;;;;8.05;3.92;;;12.60;99.90;;;;;;4983894;28;20037;-61
2023/09/14 01:19:43;;;;;;;7.60;4.15;;;12.60;99.90;;;;;;4984056;28;20070;-62
2023/09/14 01:22:30;;;;;;;8.38;4.35;;;12.60;99.90;;;;;;4981097;28;20291;-62
2023/09/14 01:25:12;;;;;;;7.03;3.72;;;12.60;99.90;;;;;;4984099;28;20033;-62
2023/09/14 01:27:37;;;;;;;8.20;4.20;;;12.60;99.90;;;;;;4983678;28;20398;-62
2023/09/14 01:30:04;;;;;;;8.73;3.85;;;12.50;99.90;;;;;;4983986;28;20330;-62
2023/09/14 01:32:30;;;;;;;11.38;4.45;;;12.50;99.90;;;;;;4983678;28;20497;-62
2023/09/14 01:34:55;;;;;;;7.57;3.53;;;12.40;99.90;;;;;;4982553;28;20061;-62
2023/09/14 01:37:22;;;;;;;7.05;3.83;;;12.40;99.90;;;;;;4983160;28;20110;-61
2023/09/14 01:39:48;;;;;;;12.10;4.60;;;12.40;99.90;;;;;;4981584;28;20141;-62
2023/09/14 01:42:14;;;;;;;13.38;5.63;;;12.40;99.90;;;;;;4981959;28;20121;-63
2023/09/14 01:44:40;;;;;;;10.80;4.93;;;12.40;99.90;;;;;;4983347;28;20130;-62
2023/09/14 01:47:06;;;;;;;9.73;4.72;;;12.30;99.90;;;;;;4983094;28;20081;-63
2023/09/14 01:49:32;;;;;;;8.27;4.28;;;12.30;99.90;;;;;;4982248;28;20121;-62
2023/09/14 01:51:58;;;;;;;7.63;4.60;;;12.30;99.90;;;;;;4983061;28;20105;-62
2023/09/14 01:54:23;;;;;;;7.38;3.97;;;12.20;99.90;;;;;;4983651;28;20034;-60
2023/09/14 01:56:49;;;;;;;7.88;4.30;;;12.10;99.90;;;;;;4984215;28;20030;-62
2023/09/14 01:59:15;;;;;;;9.55;4.25;;;12.10;99.90;;;;;;4981392;28;20969;-62
2023/09/14 02:01:41;;;;;;;6.05;3.30;;;12.00;99.90;;;;;;4984054;28;20042;-62
2023/09/14 02:04:06;;;;;;;6.80;3.13;;;12.00;99.90;;;;;;4983651;28;20121;-63
2023/09/14 02:06:32;;;;;;;6.85;3.55;;;12.00;99.90;;;;;;4982391;28;20078;-62
2023/09/14 02:08:58;;;;;;;6.85;3.60;;;12.00;99.90;;;;;;4982889;28;20050;-62
2023/09/14 02:11:23;;;;;;;6.05;3.45;;;12.00;99.90;;;;;;4981356;28;20221;-62
2023/09/14 02:13:49;;;;;;;6.90;3.38;;;12.00;99.90;;;;;;4982836;28;20121;-62
2023/09/14 02:16:16;;;;;;;8.07;3.42;;;12.00;99.90;;;;;;4983058;28;20122;-62
2023/09/14 02:18:41;;;;;;;7.88;3.63;;;12.00;99.90;;;;;;4983349;28;20105;-62
2023/09/14 02:21:07;;;;;;;7.75;3.40;;;12.00;99.90;;;;;;4982977;28;20437;-62
2023/09/14 02:23:33;;;;;;;5.60;3.20;;;12.00;99.90;;;;;;4982726;28;20030;-62
2023/09/14 02:25:59;;;;;;;7.05;2.97;;;11.90;99.90;;;;;;4982719;28;20100;-61
2023/09/14 02:28:24;;;;;;;7.53;3.15;;;11.90;99.90;;;;;;4980342;28;20058;-62
2023/09/14 02:30:50;;;;;;;4.57;2.88;;;11.80;99.90;;;;;;4982067;28;20047;-62
2023/09/14 02:33:16;;;;;;;6.63;3.30;;;11.70;99.90;;;;;;4983215;28;20030;-62
2023/09/14 02:35:45;;;;;;;7.18;3.63;;;11.70;99.90;;;;;;4982733;28;20470;-62
2023/09/14 02:38:11;;;;;;;5.88;3.28;;;11.70;99.90;;;;;;4964367;28;20070;-62
2023/09/14 02:40:37;;;;;;;6.57;3.60;;;11.60;99.90;;;;;;4981760;28;20486;-62
2023/09/14 02:43:02;;;;;;;6.97;3.45;;;11.60;99.90;;;;;;4982951;28;20071;-62
2023/09/14 02:45:28;;;;;;;8.73;3.42;;;11.60;99.90;;;;;;4983090;28;20390;-63
2023/09/14 02:47:54;;;;;;;7.75;3.33;;;11.60;99.90;;;;;;4982602;28;20085;-62
2023/09/14 02:50:19;;;;;;;7.95;3.60;;;11.60;99.90;;;;;;4983323;28;20046;-62
2023/09/14 02:52:45;;;;;;;6.10;3.60;;;11.60;99.90;;;;;;4983575;28;20089;-62
2023/09/14 02:55:11;;;;;;;6.75;3.30;;;11.60;99.90;;;;;;4987165;28;20120;-62
2023/09/14 02:57:37;;;;;;;7.05;3.50;;;11.50;99.90;;;;;;4985922;28;20112;-62
2023/09/14 03:00:06;;;;;;;6.28;3.45;;;11.50;99.90;;;;;;4984878;28;20097;-61
2023/09/14 03:02:33;;;;;;;7.43;3.88;;;11.50;99.90;;;;;;4986703;28;20358;-62
2023/09/14 03:04:58;;;;;;;7.88;3.67;;;11.50;99.90;;;;;;4985438;28;20046;-62
2023/09/14 03:07:24;;;;;;;6.80;3.70;;;11.40;99.90;;;;;;4985842;28;20039;-62
2023/09/14 03:09:49;;;;;;;9.10;3.45;;;11.40;99.90;;;;;;4986005;28;20132;-61
2023/09/14 03:12:15;;;;;;;5.53;2.17;;;11.40;99.90;;;;;;4986134;28;20034;-62
2023/09/14 03:14:41;;;;;;;7.10;3.50;;;11.30;99.90;;;;;;4986309;28;20031;-60
2023/09/14 03:17:06;;;;;;;8.52;3.53;;;11.30;99.90;;;;;;4984758;28;20606;-61
2023/09/14 03:19:32;;;;;;;6.78;3.78;;;11.30;99.90;;;;;;4986435;28;20054;-62
2023/09/14 03:21:58;;;;;;;7.18;3.35;;;11.30;99.90;;;;;;4983433;28;20030;-61
2023/09/14 03:24:23;;;;;;;6.80;3.50;;;11.20;99.90;;;;;;4986091;28;20041;-62
2023/09/14 03:26:49;;;;;;;9.73;3.88;;;11.30;99.90;;;;;;4985848;28;20035;-61
2023/09/14 03:29:15;;;;;;;6.88;2.00;;;11.20;99.90;;;;;;4985389;28;20046;-61
2023/09/14 03:31:40;;;;;;;6.78;3.78;;;11.20;99.90;;;;;;4984826;28;20033;-62
2023/09/14 03:34:07;;;;;;;6.35;3.80;;;11.20;99.90;;;;;;4986247;28;20084;-61
2023/09/14 03:36:33;;;;;;;6.60;3.50;;;11.30;99.90;;;;;;4985743;28;20050;-62
2023/09/14 03:38:59;;;;;;;6.53;3.83;;;11.30;99.90;;;;;;4984964;28;20373;-62
2023/09/14 03:41:24;;;;;;;5.15;3.60;;;11.30;99.90;;;;;;4985781;28;20074;-61
2023/09/14 03:43:50;;;;;;;6.80;3.53;;;11.30;99.90;;;;;;4985150;28;20560;-62
2023/09/14 03:46:16;;;;;;;6.65;3.40;;;11.20;99.90;;;;;;4985636;28;20088;-61
2023/09/14 03:48:42;;;;;;;7.32;3.90;;;11.20;99.90;;;;;;4985869;28;20030;-62
2023/09/14 03:51:08;;;;;;;8.65;4.18;;;11.20;99.90;;;;;;4984403;28;20045;-62
2023/09/14 03:53:33;;;;;;;8.98;4.30;;;11.20;99.90;;;;;;4986318;28;20038;-63
2023/09/14 03:56:00;;;;;;;8.70;4.07;;;11.20;99.90;;;;;;4986509;28;20486;-62
2023/09/14 03:58:26;;;;;;;8.13;4.40;;;11.20;99.90;;;;;;4985103;28;20492;-62
2023/09/14 04:00:53;;;;;;;7.53;4.57;;;11.20;99.90;;;;;;4985117;28;20125;-62
2023/09/14 04:03:19;;;;;;;8.98;5.10;;;11.20;99.90;;;;;;4983324;28;20065;-62
2023/09/14 04:05:45;;;;;;;8.10;4.68;;;11.20;99.90;;;;;;4984953;28;20050;-62
2023/09/14 04:08:11;;;;;;;6.68;4.03;;;11.10;99.90;;;;;;4986948;28;20462;-62
2023/09/14 04:10:37;;;;;;;6.47;4.40;;;11.10;99.90;;;;;;4985197;28;20437;-62
2023/09/14 04:13:29;;;;;;;7.72;4.18;;;11.10;99.90;;;;;;4984710;28;20475;-61
2023/09/14 04:15:56;;;;;;;5.28;2.95;;;11.20;99.90;;;;;;4991377;28;20043;-62
2023/09/14 04:18:22;;;;;;;6.85;3.88;;;11.10;99.90;;;;;;4983165;28;20092;-61
2023/09/14 04:20:49;;;;;;;3.42;1.65;;;11.10;99.90;;;;;;4984879;28;20030;-62
2023/09/14 04:23:15;;;;;;;8.77;3.25;;;11.00;99.90;;;;;;4985320;28;20027;-61
2023/09/14 04:25:46;;;;;;;4.43;1.60;;;11.00;99.90;;;;;;4984722;28;20038;-62
2023/09/14 04:28:13;;;;;;;6.20;2.80;;;11.00;99.90;;;;;;4984275;28;20043;-61
2023/09/14 04:30:42;;;;;;;7.40;3.22;;;10.90;99.90;;;;;;4985235;28;20429;-62
2023/09/14 04:33:07;;;;;;;5.45;2.97;;;11.10;99.90;;;;;;4984560;28;20058;-61
2023/09/14 04:35:33;;;;;;;6.18;3.55;;;11.00;99.90;;;;;;4983622;28;20070;-62
2023/09/14 04:37:59;;;;;;;6.07;3.60;;;11.00;99.90;;;;;;4983574;28;20041;-62
2023/09/14 04:40:24;;;;;;;7.82;3.50;;;11.00;99.90;;;;;;4984121;28;20058;-62
2023/09/14 04:42:50;;;;;;;7.53;3.88;;;11.00;99.90;;;;;;4983258;28;20058;-62
2023/09/14 04:45:16;;;;;;;9.13;4.20;;;10.90;99.90;;;;;;4984830;28;20046;-62
2023/09/14 04:47:41;;;;;;;7.00;3.65;;;11.00;99.90;;;;;;4984391;28;20043;-62
2023/09/14 04:50:07;;;;;;;6.88;3.53;;;10.90;99.90;;;;;;4982236;28;20042;-61
2023/09/14 04:52:33;;;;;;;6.40;2.00;;;10.90;99.90;;;;;;4984292;28;20030;-61
2023/09/14 04:54:58;;;;;;;5.35;3.53;;;10.90;99.90;;;;;;4984009;28;20069;-61
2023/09/14 04:57:24;;;;;;;6.03;3.33;;;10.90;99.90;;;;;;4983949;28;20038;-62
2023/09/14 04:59:50;;;;;;;7.47;3.80;;;10.80;99.90;;;;;;4984205;28;20061;-62
2023/09/14 05:02:16;;;;;;;7.13;2.05;;;10.80;99.90;;;;;;4983660;28;20535;-61
2023/09/14 05:04:41;;;;;;;6.53;3.50;;;10.80;99.90;;;;;;4983819;28;20124;-61
2023/09/14 05:07:07;;;;;;;7.57;3.60;;;10.80;99.90;;;;;;4984274;28;20494;-61
2023/09/14 05:09:33;;;;;;;6.35;3.70;;;10.80;99.90;;;;;;4983848;28;20364;-61
2023/09/14 05:11:59;;;;;;;9.23;3.67;;;10.80;99.90;;;;;;4984048;28;20500;-61
2023/09/14 05:14:24;;;;;;;8.95;3.83;;;10.80;99.90;;;;;;4983548;28;20060;-61
2023/09/14 05:16:50;;;;;;;9.60;4.05;;;10.80;99.90;;;;;;4983988;28;20038;-61
2023/09/14 05:19:17;;;;;;;7.55;2.20;;;10.80;99.90;;;;;;4982493;28;20518;-62
2023/09/14 05:21:42;;;;;;;6.15;3.72;;;10.80;99.90;;;;;;4984151;28;20042;-62
2023/09/14 05:24:08;;;;;;;8.45;3.63;;;10.80;99.90;;;;;;4983947;28;20466;-61
2023/09/14 05:26:34;;;;;;;7.97;2.17;;;10.80;99.90;;;;;;4983268;28;20030;-62
2023/09/14 05:29:00;;;;;;;7.82;3.80;;;10.80;99.90;;;;;;4983367;28;20038;-61
2023/09/14 05:31:25;;;;;;;8.10;3.53;;;10.80;99.90;;;;;;4984195;28;20120;-62
2023/09/14 05:33:51;;;;;;;6.65;2.28;;;10.80;99.90;;;;;;4982642;28;20505;-62
2023/09/14 05:36:16;;;;;;;6.85;3.20;;;10.80;99.90;;;;;;4984483;28;20033;-62
2023/09/14 05:38:44;;;;;;;5.32;2.00;;;10.70;99.90;;;;;;4983269;28;20046;-61
2023/09/14 05:41:10;;;;;;;7.95;3.95;;;10.80;99.90;;;;;;4983274;28;20109;-61
2023/09/14 05:43:36;;;;;;;6.50;3.70;;;10.80;99.90;;;;;;4983754;28;20513;-61
2023/09/14 05:46:02;;;;;;;7.32;4.25;;;10.80;99.90;;;;;;4983185;28;20446;-62
2023/09/14 05:48:28;;;;;;;7.50;2.40;;;10.90;99.90;;;;;;4981540;28;20084;-61
2023/09/14 05:50:54;;;;;;;8.43;4.53;;;10.90;99.90;;;;;;4983945;28;20042;-61
2023/09/14 05:53:19;;;;;;;10.02;4.45;;;11.00;99.90;;;;;;4983260;28;20045;-62
2023/09/14 05:55:45;;;;;;;10.07;4.65;;;10.90;99.90;;;;;;4983174;28;20038;-62
2023/09/14 05:58:11;;;;;;;8.35;4.32;;;11.00;99.90;;;;;;4983973;28;20041;-63
2023/09/14 06:00:36;;;;;;;8.55;4.13;;;11.00;99.90;;;;;;4983725;28;20046;-62
2023/09/14 06:03:02;;;;;;;8.13;2.58;;;11.00;99.90;;;;;;4982356;28;20686;-62
2023/09/14 06:05:28;;;;;;;9.38;4.30;;;10.90;99.90;;;;;;4983259;28;20031;-63
2023/09/14 06:07:54;;;;;;;7.20;2.45;;;11.00;99.90;;;;;;4982997;28;20031;-63
2023/09/14 06:10:20;;;;;;;9.75;5.20;;;11.00;99.90;;;;;;4982805;28;20046;-63
2023/09/14 06:12:46;;;;;;;11.63;5.13;;;11.10;99.90;;;;;;4981539;28;20069;-62
2023/09/14 06:15:11;;;;;;;8.57;5.00;;;11.20;99.90;;;;;;4983599;28;20038;-63
2023/09/14 06:17:37;;;;;;;8.07;3.00;;;11.20;99.90;;;;;;4983412;28;20108;-63
2023/09/14 06:20:05;;;;;;;11.02;5.22;;;11.30;99.90;;;;;;4983183;28;20030;-63
2023/09/14 06:22:31;;;;;;;10.07;5.15;;;11.30;99.90;;;;;;4983678;28;20466;-63
2023/09/14 06:24:57;;;;;;;11.82;5.65;;;11.40;99.90;;;;;;4983694;28;20041;-62
2023/09/14 06:27:22;;;;;;;10.15;5.85;;;11.40;99.90;;;;;;4984657;28;20038;-63
2023/09/14 06:29:48;;;;;;;10.48;5.35;;;11.40;99.90;;;;;;4987023;28;20121;-63
2023/09/14 06:32:14;;;;;;;10.07;5.65;;;11.50;99.90;;;;;;4985795;28;20038;-62
2023/09/14 06:34:39;;;;;;;11.38;6.57;;;11.50;99.90;;;;;;4985837;28;20042;-62
2023/09/14 06:37:05;;;;;;;13.70;6.75;;;11.60;99.90;;;;;;4986638;28;20030;-62
2023/09/14 06:39:31;;;;;;;12.52;6.50;;;11.60;99.90;;;;;;4984489;28;20061;-63
2023/09/14 06:41:56;;;;;;;10.32;5.20;;;11.70;99.90;;;;;;4987018;28;20038;-62
2023/09/14 06:44:23;;;;;;;10.75;5.50;;;11.80;99.90;;;;;;4986903;28;20093;-62
2023/09/14 06:46:49;;;;;;;10.23;5.38;;;11.90;99.90;;;;;;4985617;28;20099;-62
2023/09/14 06:49:14;;;;;;;10.65;5.93;;;11.90;99.90;;;;;;4984896;28;20038;-63
2023/09/14 06:51:41;;;;;;;15.55;5.53;;;11.90;99.90;;;;;;4985802;28;20041;-63
2023/09/14 06:54:07;;;;;;;12.80;5.90;;;12.10;99.90;;;;;;4985396;28;20046;-62
2023/09/14 06:56:33;;;;;;;13.65;5.93;;;12.10;99.90;;;;;;4985675;28;20042;-62
2023/09/14 06:58:59;;;;;;;10.88;5.60;;;12.20;99.90;;;;;;4985710;28;20120;-63
2023/09/14 07:01:24;;;;;;;12.88;6.05;;;12.30;99.90;;;;;;4986295;28;20042;-62
2023/09/14 07:03:51;;;;;;;9.90;3.63;;;12.20;99.90;;;;;;4984634;28;20482;-62
2023/09/14 07:06:17;;;;;;;10.68;5.97;;;12.30;99.90;;;;;;4986041;28;20482;-62
2023/09/14 07:08:43;;;;;;;11.75;6.00;;;12.40;99.90;;;;;;4986266;28;20039;-62
2023/09/14 07:11:09;;;;;;;14.00;6.00;;;12.40;99.90;;;;;;4985896;28;20116;-63
2023/09/14 07:13:35;;;;;;;12.05;4.00;;;12.40;99.90;;;;;;4985199;28;20702;-63
2023/09/14 07:16:03;;;;;;;13.82;6.22;;;12.60;99.90;;;;;;4985954;28;20046;-62
2023/09/14 07:18:30;;;;;;;14.05;5.68;;;12.60;99.90;;;;;;4984501;28;20034;-62
2023/09/14 07:20:58;;;;;;;15.38;4.10;;;12.70;99.90;;;;;;4984838;28;20425;-62
2023/09/14 07:23:27;;;;;;;10.85;5.30;;;12.70;99.90;;;;;;4986517;28;20045;-62
2023/09/14 07:25:53;;;;;;;12.73;6.00;;;12.80;99.90;;;;;;4985744;28;20470;-63
2023/09/14 07:28:20;;;;;;;13.65;5.45;;;12.80;99.90;;;;;;4985700;28;20027;-63
2023/09/14 07:30:50;;;;;;;9.65;5.28;;;12.90;99.90;;;;;;4969037;28;20042;-63
2023/09/14 07:33:16;;;;;;;13.35;5.10;;;13.00;99.90;;;;;;4985898;28;20045;-63
2023/09/14 07:35:42;;;;;;;10.88;4.57;;;13.10;99.90;;;;;;4986034;28;20026;-62
2023/09/14 07:38:10;;;;;;;8.68;2.30;;;13.20;99.90;;;;;;4989114;28;20147;-62
2023/09/14 07:40:39;;;;;;;11.73;2.78;;;13.20;99.90;;;;;;4985085;28;20050;-62
2023/09/14 07:43:05;;;;;;;11.85;3.47;;;13.30;99.90;;;;;;4985746;28;20582;-63
2023/09/14 07:45:33;;;;;;;11.30;3.15;;;13.30;99.90;;;;;;4985905;28;20042;-63
2023/09/14 07:48:01;;;;;;;9.25;3.25;;;13.40;99.90;;;;;;4985085;28;20568;-63
2023/09/14 07:50:26;;;;;;;11.52;3.35;;;13.50;99.90;;;;;;4986044;28;20053;-62
2023/09/14 07:52:52;;;;;;;9.85;2.72;;;13.60;99.90;;;;;;4986051;28;20034;-63
2023/09/14 07:55:18;;;;;;;7.93;2.85;;;13.60;99.90;;;;;;4983709;28;20069;-62
2023/09/14 07:57:44;;;;;;;7.75;3.00;;;13.70;99.90;;;;;;4984609;28;20548;-62
2023/09/14 08:00:10;;;;;;;6.75;2.70;;;13.80;99.90;;;;;;4985645;28;20053;-63
2023/09/14 08:02:36;;;;;;;8.82;2.72;;;13.90;99.90;;;;;;4984769;28;20118;-64
2023/09/14 08:05:01;;;;;;;7.55;2.83;;;13.90;99.90;;;;;;4985773;28;20046;-60
2023/09/14 08:07:27;;;;;;;11.93;3.10;;;14.00;99.90;;;;;;4984150;28;20098;-61
2023/09/14 08:09:53;;;;;;;7.88;3.47;;;14.10;99.90;;;;;;4983450;28;20046;-61
2023/09/14 08:12:19;;;;;;;9.60;3.00;;;14.20;99.90;;;;;;4985565;28;20030;-63
2023/09/14 08:14:44;;;;;;;10.05;3.38;;;14.20;99.90;;;;;;4983807;28;20097;-62
2023/09/14 08:17:11;;;;;;;11.13;2.58;;;14.30;99.90;;;;;;4983264;28;20034;-62
2023/09/14 08:19:37;;;;;;;8.23;3.40;;;14.40;99.90;;;;;;4984989;28;20041;-61
2023/09/14 08:22:03;;;;;;;11.27;2.28;;;14.50;99.90;;;;;;4983630;28;20038;-62
2023/09/14 08:24:29;;;;;;;9.70;2.88;;;14.50;99.90;;;;;;4984107;28;20409;-62
2023/09/14 08:26:55;;;;;;;8.68;3.08;;;14.60;99.90;;;;;;4984703;28;20509;-62
2023/09/14 08:29:21;;;;;;;9.02;3.63;;;14.70;99.90;;;;;;4984859;28;20398;-62
2023/09/14 08:31:50;;;;;;;9.43;3.00;;;14.80;99.90;;;;;;4984280;28;20043;-62
2023/09/14 08:34:16;;;;;;;10.27;3.20;;;14.90;99.90;;;;;;4985332;28;20042;-62
2023/09/14 08:36:41;;;;;;;7.57;2.42;;;15.00;99.90;;;;;;4983353;28;20046;-62
2023/09/14 08:39:07;;;;;;;9.68;3.15;;;15.10;99.90;;;;;;4982567;28;20026;-62
2023/09/14 08:41:40;;;;;;;7.90;3.10;;;15.20;99.90;;;;;;4983959;28;20081;-62
2023/09/14 08:44:07;;;;;;;12.70;3.10;;;15.30;99.90;;;;;;4984609;28;20117;-62
2023/09/14 08:46:34;;;;;;;9.80;3.13;;;15.40;99.90;;;;;;4982033;28;20108;-61
2023/09/14 08:49:01;;;;;;;9.98;2.45;;;15.60;99.90;;;;;;4984019;28;20418;-61
2023/09/14 08:51:29;;;;;;;10.18;1.95;;;15.70;99.90;;;;;;4982411;28;20046;-62
2023/09/14 08:53:56;;;;;;;8.32;2.28;;;15.70;99.90;;;;;;4983753;28;20042;-62
2023/09/14 08:56:22;;;;;;;8.20;2.63;;;15.70;99.90;;;;;;4983785;28;20034;-62
2023/09/14 08:58:50;;;;;;;8.75;2.50;;;15.70;99.90;;;;;;4984476;28;20034;-62
2023/09/14 09:01:19;;;;;;;10.35;1.73;;;15.80;99.90;;;;;;4983849;28;20138;-61
2023/09/14 09:03:44;;;;;;;8.95;2.40;;;15.80;99.90;;;;;;4984472;28;20030;-62
2023/09/14 09:06:11;;;;;;;7.03;2.00;;;16.00;99.90;;;;;;4982769;28;20057;-61
2023/09/14 09:08:38;;;;;;;8.88;1.88;;;16.10;99.90;;;;;;4983043;28;20573;-62
2023/09/14 09:11:04;;;;;;;8.20;2.00;;;16.30;99.90;;;;;;4983380;28;20046;-61
2023/09/14 09:13:34;;;;;;;6.60;1.73;;;16.40;99.90;;;;;;4984739;28;20077;-62
2023/09/14 09:16:00;;;;;;;8.80;1.35;;;16.50;99.90;;;;;;4983651;28;20296;-62
2023/09/14 09:18:26;;;;;;;8.07;2.00;;;16.50;99.90;;;;;;4983980;28;20440;-62
2023/09/14 09:20:52;;;;;;;9.95;1.92;;;16.70;99.90;;;;;;4984058;28;20042;-62
2023/09/14 09:23:21;;;;;;;10.60;1.50;;;16.80;99.90;;;;;;4983809;28;20052;-62
2023/09/14 09:25:54;;;;;;;8.25;2.00;;;16.90;99.90;;;;;;4984070;28;20066;-61
2023/09/14 09:28:29;;;;;;;10.88;2.03;;;17.00;99.90;;;;;;4983733;28;20482;-62
2023/09/14 09:30:55;;;;;;;6.13;1.83;;;17.10;99.90;;;;;;4966145;28;20117;-61
2023/09/14 09:33:40;;;;;;;6.55;1.70;;;17.20;99.90;;;;;;4983952;28;20501;-62
2023/09/14 09:36:17;;;;;;;7.45;1.83;;;17.30;99.90;;;;;;4983771;28;20489;-62
2023/09/14 09:38:45;;;;;;;8.23;2.13;;;17.30;99.90;;;;;;4982217;28;20124;-62
2023/09/14 09:41:11;;;;;;;8.60;1.73;;;17.40;99.90;;;;;;4982887;28;20081;-63
2023/09/14 09:43:38;;;;;;;10.10;2.20;;;17.50;99.90;;;;;;4984331;28;20057;-62
2023/09/14 09:46:12;;;;;;;7.47;1.83;;;17.50;99.90;;;;;;4982733;28;20097;-61
2023/09/14 09:48:38;;;;;;;10.10;1.83;;;17.60;99.90;;;;;;4983152;28;20030;-62
2023/09/14 09:51:04;;;;;;;8.73;2.13;;;17.60;99.90;;;;;;4982083;28;20053;-62
2023/09/14 09:53:31;;;;;;;8.88;2.10;;;17.70;99.90;;;;;;4983780;28;20463;-62
2023/09/14 09:55:57;;;;;;;7.43;1.92;;;17.80;99.90;;;;;;4983665;28;20038;-62
2023/09/14 09:58:37;;;;;;;9.45;2.20;;;17.80;99.90;;;;;;4983015;28;20057;-62
2023/09/14 10:01:03;;;;;;;5.82;1.95;;;17.90;99.90;;;;;;4990511;28;20125;-62
2023/09/14 10:03:32;;;;;;;7.88;1.52;;;18.10;99.90;;;;;;4987388;28;20038;-62
2023/09/14 10:05:58;;;;;;;8.20;1.80;;;18.20;99.90;;;;;;4986942;28;20060;-62
2023/09/14 10:08:24;;;;;;;7.82;1.83;;;18.20;99.90;;;;;;4986833;28;20036;-62
2023/09/14 10:10:53;;;;;;;8.48;2.38;;;18.20;99.90;;;;;;4987618;28;20046;-62
2023/09/14 10:13:24;;;;;;;5.93;1.85;;;18.20;99.90;;;;;;5003183;28;20030;-62
2023/09/14 10:15:55;;;;;;;9.00;1.52;;;18.20;99.90;;;;;;4986987;28;20030;-62
2023/09/14 10:18:22;;;;;;;10.77;1.88;;;18.30;99.90;;;;;;4987326;28;20032;-61
2023/09/14 10:20:51;;;;;;;9.60;2.33;;;18.30;99.90;;;;;;4986409;28;20038;-63
2023/09/14 10:23:18;;;;;;;5.65;2.05;;;18.30;99.90;;;;;;5002019;28;20050;-62
2023/09/14 10:25:51;;;;;;;6.22;1.77;;;18.30;99.90;;;;;;4986563;28;20042;-62
2023/09/14 10:28:20;;;;;;;7.50;2.22;;;18.40;99.90;;;;;;4987141;28;20513;-62
2023/09/14 10:30:46;;;;;;;8.10;2.08;;;18.50;99.90;;;;;;4987313;28;20031;-62
2023/09/14 10:33:13;;;;;;;7.03;1.80;;;18.60;99.90;;;;;;4986678;28;20073;-62
2023/09/14 10:35:40;;;;;;;7.55;2.25;;;18.70;99.90;;;;;;4986530;28;20045;-62
2023/09/14 10:38:06;;;;;;;9.75;2.05;;;18.80;99.90;;;;;;4986741;28;20038;-62
2023/09/14 10:40:36;;;;;;;9.15;2.30;;;18.90;99.90;;;;;;4986230;28;20066;-61
2023/09/14 10:43:03;;;;;;;8.38;1.85;;;19.00;99.90;;;;;;4987177;28;20501;-62
2023/09/14 10:45:43;;;;;;;6.93;1.98;;;19.10;99.90;;;;;;4987015;28;20099;-61
2023/09/14 10:48:19;;;;;;;8.13;1.85;;;19.20;99.90;;;;;;4986664;28;20125;-62
2023/09/14 10:50:45;;;;;;;7.97;1.98;;;19.30;99.90;;;;;;5001353;28;20042;-62
2023/09/14 10:53:14;;;;;;;6.50;1.90;;;19.40;99.90;;;;;;4987075;28;20037;-60
2023/09/14 10:55:42;;;;;;;6.50;2.25;;;19.60;99.90;;;;;;4986335;28;20042;-62
2023/09/14 10:58:12;;;;;;;5.35;1.77;;;19.70;99.90;;;;;;4985972;28;20497;-62
2023/09/14 11:00:42;;;;;;;6.40;1.58;;;19.80;99.90;;;;;;4986376;28;20038;-62
2023/09/14 11:03:09;;;;;;;6.60;1.58;;;20.00;99.90;;;;;;4986557;28;20231;-61
2023/09/14 11:05:48;;;;;;;8.40;2.05;;;20.10;99.90;;;;;;4985434;28;20120;-62
2023/09/14 11:08:15;;;;;;;6.40;1.98;;;20.20;99.90;;;;;;4984710;28;20454;-62
2023/09/14 11:10:58;;;;;;;10.70;2.13;;;20.30;99.90;;;;;;4984631;28;20111;-62
2023/09/14 11:13:25;;;;;;;7.57;2.10;;;20.30;99.90;;;;;;4986191;28;20030;-62
2023/09/14 11:16:06;;;;;;;6.95;1.80;;;20.20;99.90;;;;;;4985819;28;20043;-62
2023/09/14 11:18:57;;;;;;;6.85;1.80;;;20.20;99.90;;;;;;4985753;28;20042;-61
2023/09/14 11:21:31;;;;;;;7.57;1.90;;;20.20;99.90;;;;;;4985679;28;20380;-61
2023/09/14 11:23:58;;;;;;;5.68;2.00;;;20.30;99.90;;;;;;4986348;28;20378;-62
2023/09/14 11:26:30;;;;;;;9.25;2.10;;;20.40;99.90;;;;;;4985987;28;20084;-62
2023/09/14 11:28:58;;;;;;;6.45;2.10;;;20.60;99.90;;;;;;4985698;28;20105;-61
2023/09/14 11:31:32;;;;;;;5.70;1.67;;;20.70;99.90;;;;;;4985846;28;20039;-62
2023/09/14 11:34:03;;;;;;;10.60;2.05;;;20.80;99.90;;;;;;4985387;28;20042;-61
2023/09/14 11:36:29;;;;;;;8.25;2.03;;;20.80;99.90;;;;;;4985595;28;20383;-61
2023/09/14 11:38:55;;;;;;;8.05;2.00;;;20.80;99.90;;;;;;4985056;28;20121;-63
2023/09/14 11:42:04;;;;;;;6.22;1.83;;;20.90;99.90;;;;;;4986096;28;20061;-61
2023/09/14 11:44:31;;;;;;;6.82;1.92;;;21.10;99.90;;;;;;4925551;29;20043;-62
2023/09/14 11:47:01;;;;;;;10.43;2.38;;;21.20;99.90;;;;;;4977196;28;20050;-61
2023/09/14 11:49:31;;;;;;;6.18;2.00;;;21.10;99.90;;;;;;4984053;28;20402;-62
2023/09/14 11:51:58;;;;;;;7.22;2.13;;;20.80;99.90;;;;;;4986064;28;20046;-63
2023/09/14 11:54:30;;;;;;;9.45;2.10;;;20.50;99.90;;;;;;4984419;28;20462;-61
2023/09/14 11:57:03;;;;;;;6.68;2.10;;;20.70;99.90;;;;;;4985692;28;20780;-61
2023/09/14 11:59:32;;;;;;;8.48;2.13;;;20.90;99.90;;;;;;4984793;28;20030;-62
2023/09/14 12:02:01;;;;;;;6.07;1.80;;;21.10;99.90;;;;;;4984288;28;20031;-62
2023/09/14 12:04:28;;;;;;;7.28;1.70;;;21.30;99.90;;;;;;4985588;28;20038;-62
2023/09/14 12:06:55;;;;;;;6.35;1.83;;;21.40;99.90;;;;;;4985956;28;20125;-61
2023/09/14 12:09:38;;;;;;;8.27;1.95;;;21.40;99.90;;;;;;4983340;28;20100;-61
2023/09/14 12:12:05;;;;;;;7.13;2.28;;;21.60;99.90;;;;;;4985301;28;20074;-61
2023/09/14 12:14:38;;;;;;;8.52;2.22;;;21.60;99.90;;;;;;4985171;28;20062;-61
2023/09/14 12:17:27;;;;;;;6.72;1.92;;;21.80;99.90;;;;;;4985552;28;20053;-62
2023/09/14 12:19:56;;;;;;;6.32;2.17;;;22.10;99.90;;;;;;4984789;28;20042;-61
2023/09/14 12:22:24;;;;;;;6.05;2.03;;;22.20;99.90;;;;;;4984393;28;20045;-62
2023/09/14 12:24:50;;;;;;;7.20;2.35;;;22.40;99.90;;;;;;4991406;28;20077;-61
2023/09/14 12:27:20;;;;;;;5.55;1.90;;;22.50;99.80;;;;;;4984250;28;20030;-61
2023/09/14 12:29:47;;;;;;;8.63;2.58;;;22.60;99.50;;;;;;4983100;28;20034;-62
2023/09/14 12:32:13;;;;;;;6.28;1.92;;;22.60;99.30;;;;;;4984847;28;20121;-62
2023/09/14 12:34:39;;;;;;;7.82;1.98;;;22.70;99.70;;;;;;4983754;28;20034;-63
2023/09/14 12:37:06;;;;;;;6.32;2.13;;;22.80;99.60;;;;;;4984981;28;20034;-62
2023/09/14 12:39:32;;;;;;;5.28;2.20;;;22.80;99.40;;;;;;4982718;28;20057;-61
2023/09/14 12:42:01;;;;;;;7.22;2.40;;;22.80;98.70;;;;;;4984106;28;20042;-61
2023/09/14 12:44:27;;;;;;;6.97;2.10;;;22.80;98.50;;;;;;4984709;28;20129;-62
2023/09/14 12:46:58;;;;;;;6.63;2.40;;;22.80;98.30;;;;;;5116760;27;1275946;-63
2023/09/14 12:49:24;;;;;;;7.80;2.10;;;22.80;97.90;;;;;;5141952;27;20074;-62
2023/09/14 12:51:51;;;;;;;5.45;2.17;;;22.90;98.20;;;;;;5141159;27;20030;-64
2023/09/14 12:54:24;;;;;;;7.82;2.35;;;22.90;98.10;;;;;;5141633;27;20490;-63
2023/09/14 12:56:50;;;;;;;5.35;2.10;;;23.00;97.80;;;;;;5141040;27;20419;-62
2023/09/14 12:59:16;;;;;;;6.35;2.50;;;23.20;97.90;;;;;;5141525;27;20427;-62
2023/09/14 13:01:41;;;;;;;6.38;2.15;;;23.30;97.60;;;;;;5141549;27;20035;-62
2023/09/14 13:04:10;;;;;;;5.55;1.98;;;23.50;97.80;;;;;;5123268;27;20039;-62
2023/09/14 13:06:36;;;;;;;5.88;2.20;;;23.70;97.90;;;;;;5141611;27;20081;-61
2023/09/14 13:09:07;;;;;;;5.90;2.20;;;23.90;97.10;;;;;;5122273;27;20525;-62
2023/09/14 13:11:36;;;;;;;9.15;2.97;;;24.00;96.50;;;;;;5141038;27;20115;-62
2023/09/14 13:14:04;;;;;;;6.53;2.15;;;24.00;96.30;;;;;;5141288;27;20023;-61
2023/09/14 13:16:30;;;;;;;8.88;2.45;;;24.00;96.80;;;;;;5122737;27;20039;-62
2023/09/14 13:19:00;;;;;;;6.72;2.30;;;24.00;96.10;;;;;;5141327;27;20121;-62
2023/09/14 13:21:26;;;;;;;7.05;3.17;;;24.00;96.30;;;;;;5140873;27;20389;-62
2023/09/14 13:23:53;;;;;;;7.60;2.28;;;24.10;95.90;;;;;;5140815;27;20092;-63
2023/09/14 13:26:20;;;;;;;6.57;2.38;;;24.20;95.70;;;;;;5141443;27;20047;-62